createdAt,value
2022-10-16T00:01:49.768Z,64.92
2022-10-16T00:04:17.462Z,64.90
2022-10-16T00:06:45.198Z,64.86
2022-10-16T00:09:18.066Z,64.85
2022-10-16T00:11:45.843Z,64.84
2022-10-16T00:14:17.365Z,64.87
2022-10-16T00:16:45.100Z,64.96
2022-10-16T00:19:16.877Z,65.07
2022-10-16T00:21:44.634Z,65.11
2022-10-16T00:24:12.370Z,65.07
2022-10-16T00:26:47.991Z,65.07
2022-10-16T00:29:15.616Z,65.40
2022-10-16T00:31:43.346Z,65.17
2022-10-16T00:34:11.007Z,65.33
2022-10-16T00:36:38.774Z,65.32
2022-10-16T00:39:10.305Z,65.50
2022-10-16T00:41:38.157Z,65.46
2022-10-16T00:45:01.233Z,65.50
2022-10-16T00:47:50.236Z,65.70
2022-10-16T00:50:29.226Z,65.71
2022-10-16T00:53:00.937Z,65.74
2022-10-16T00:55:32.790Z,65.61
2022-10-16T00:58:04.288Z,65.73
2022-10-16T01:00:34.751Z,65.69
2022-10-16T01:03:26.650Z,65.75
2022-10-16T01:06:29.228Z,65.83
2022-10-16T01:09:18.556Z,66.63
2022-10-16T01:12:00.720Z,66.21
2022-10-16T01:14:56.879Z,66.10
2022-10-16T01:18:09.536Z,66.23
2022-10-16T01:20:58.970Z,66.23
2022-10-16T01:24:01.149Z,66.18
2022-10-16T01:26:47.420Z,66.35
2022-10-16T01:29:27.164Z,66.29
2022-10-16T01:32:01.997Z,66.46
2022-10-16T01:34:39.423Z,66.37
2022-10-16T01:37:16.737Z,66.39
2022-10-16T01:39:52.174Z,66.33
2022-10-16T01:42:28.113Z,66.38
2022-10-16T01:44:57.427Z,66.54
2022-10-16T01:47:30.057Z,66.49
2022-10-16T01:50:02.942Z,66.47
2022-10-16T01:52:34.808Z,66.45
2022-10-16T01:55:10.675Z,66.83
2022-10-16T01:57:48.593Z,66.69
2022-10-16T02:00:21.408Z,66.67
2022-10-16T02:02:56.312Z,66.74
2022-10-16T02:05:33.234Z,66.99
2022-10-16T02:08:05.874Z,66.98
2022-10-16T02:10:38.234Z,66.93
2022-10-16T02:13:28.606Z,67.16
2022-10-16T02:16:00.085Z,67.42
2022-10-16T02:18:32.209Z,67.08
2022-10-16T02:21:25.595Z,67.15
2022-10-16T02:24:09.406Z,67.19
2022-10-16T02:26:45.838Z,67.16
2022-10-16T02:29:21.286Z,67.22
2022-10-16T02:32:05.678Z,67.21
2022-10-16T02:34:38.503Z,67.17
2022-10-16T02:37:11.534Z,67.21
2022-10-16T02:39:43.750Z,67.30
2022-10-16T02:42:18.976Z,67.42
2022-10-16T02:44:46.687Z,67.40
2022-10-16T02:47:15.395Z,67.44
2022-10-16T02:49:43.044Z,67.42
2022-10-16T02:52:10.741Z,67.47
2022-10-16T02:54:38.379Z,67.32
2022-10-16T02:57:06.147Z,67.49
2022-10-16T02:59:33.930Z,67.40
2022-10-16T03:02:01.673Z,67.55
2022-10-16T03:04:29.439Z,67.48
2022-10-16T03:06:57.149Z,67.56
2022-10-16T03:09:24.868Z,67.44
2022-10-16T03:11:56.925Z,67.51
2022-10-16T03:14:24.622Z,67.52
2022-10-16T03:16:52.868Z,67.62
2022-10-16T03:19:20.741Z,67.57
2022-10-16T03:21:48.477Z,67.60
2022-10-16T03:24:19.943Z,67.84
2022-10-16T03:26:51.593Z,67.68
2022-10-16T03:29:19.258Z,67.63
2022-10-16T03:31:47.004Z,67.71
2022-10-16T03:34:14.735Z,67.69
2022-10-16T03:36:42.372Z,67.80
2022-10-16T03:39:10.116Z,67.87
2022-10-16T03:41:37.833Z,67.83
2022-10-16T03:44:05.582Z,67.79
2022-10-16T03:46:33.264Z,67.89
2022-10-16T03:49:01.718Z,67.83
2022-10-16T03:51:34.726Z,67.87
2022-10-16T03:54:02.490Z,67.86
2022-10-16T03:56:30.405Z,67.93
2022-10-16T03:58:58.095Z,67.87
2022-10-16T04:01:25.987Z,67.81
2022-10-16T04:03:53.708Z,67.90
2022-10-16T04:06:21.389Z,68.00
2022-10-16T04:08:49.079Z,67.98
2022-10-16T04:11:16.849Z,67.98
2022-10-16T04:13:48.497Z,67.88
2022-10-16T04:16:16.156Z,68.04
2022-10-16T04:18:43.807Z,68.00
2022-10-16T04:21:11.517Z,68.03
2022-10-16T04:23:39.222Z,68.00
2022-10-16T04:26:12.944Z,67.90
2022-10-16T04:28:44.849Z,68.02
2022-10-16T04:31:12.822Z,67.98
2022-10-16T04:33:46.788Z,67.98
2022-10-16T04:36:15.156Z,67.94
2022-10-16T04:38:43.303Z,68.02
2022-10-16T04:41:10.966Z,68.03
2022-10-16T04:43:38.606Z,67.94
2022-10-16T04:46:08.050Z,67.99
2022-10-16T04:48:35.674Z,68.05
2022-10-16T04:51:03.510Z,67.97
2022-10-16T04:53:35.476Z,67.95
2022-10-16T04:56:03.284Z,68.04
2022-10-16T04:58:30.930Z,67.98
2022-10-16T05:01:01.001Z,68.05
2022-10-16T05:03:28.668Z,68.05
2022-10-16T05:05:56.368Z,67.97
2022-10-16T05:08:24.054Z,67.91
2022-10-16T05:10:51.729Z,68.11
2022-10-16T05:13:19.577Z,68.03
2022-10-16T05:15:50.331Z,68.02
2022-10-16T05:18:18.076Z,68.02
2022-10-16T05:20:45.779Z,68.09
2022-10-16T05:25:56.939Z,68.05
2022-10-16T05:28:32.341Z,68.07
2022-10-16T05:31:04.368Z,68.05
2022-10-16T05:33:34.891Z,67.92
2022-10-16T05:36:09.196Z,67.96
2022-10-16T05:38:41.242Z,68.06
2022-10-16T05:41:09.179Z,68.04
2022-10-16T05:43:36.969Z,68.03
2022-10-16T05:46:09.251Z,68.04
2022-10-16T05:48:36.950Z,68.06
2022-10-16T05:51:10.205Z,68.09
2022-10-16T05:56:19.636Z,68.05
2022-10-16T05:58:48.053Z,67.97
2022-10-16T06:01:29.084Z,68.01
2022-10-16T06:03:57.139Z,67.95
2022-10-16T06:06:31.968Z,68.10
2022-10-16T06:09:04.511Z,68.01
2022-10-16T06:11:39.272Z,67.99
2022-10-16T06:14:13.659Z,67.98
2022-10-16T06:16:41.435Z,67.99
2022-10-16T06:19:13.987Z,68.00
2022-10-16T06:21:49.035Z,68.01
2022-10-16T06:24:20.465Z,67.91
2022-10-16T06:26:48.192Z,67.95
2022-10-16T06:29:15.862Z,67.87
2022-10-16T06:31:43.643Z,67.91
2022-10-16T06:34:16.002Z,67.88
2022-10-16T06:36:48.179Z,67.91
2022-10-16T06:39:15.898Z,67.89
2022-10-16T06:41:43.559Z,67.89
2022-10-16T06:44:11.328Z,67.78
2022-10-16T06:46:39.026Z,67.76
2022-10-16T06:49:10.755Z,67.69
2022-10-16T06:51:43.696Z,67.79
2022-10-16T06:54:12.127Z,67.74
2022-10-16T06:56:39.907Z,67.66
2022-10-16T06:59:07.615Z,67.62
2022-10-16T07:01:35.385Z,67.67
2022-10-16T07:04:03.777Z,67.52
2022-10-16T07:06:35.814Z,67.44
2022-10-16T07:09:08.838Z,67.45
2022-10-16T07:11:41.456Z,67.42
2022-10-16T07:14:23.888Z,67.34
2022-10-16T07:16:51.694Z,67.35
2022-10-16T07:19:19.685Z,67.38
2022-10-16T07:21:47.567Z,67.34
2022-10-16T07:24:20.409Z,67.06
2022-10-16T07:26:48.117Z,67.25
2022-10-16T07:29:21.061Z,66.97
2022-10-16T07:31:52.752Z,66.99
2022-10-16T07:34:24.377Z,66.93
2022-10-16T07:36:52.205Z,66.73
2022-10-16T07:39:20.123Z,66.93
2022-10-16T07:41:47.869Z,66.83
2022-10-16T07:44:20.454Z,66.87
2022-10-16T07:46:48.201Z,66.71
2022-10-16T07:49:18.229Z,66.71
2022-10-16T07:51:45.919Z,66.63
2022-10-16T07:54:14.778Z,66.58
2022-10-16T07:56:43.928Z,66.27
2022-10-16T07:59:15.526Z,66.32
2022-10-16T08:01:43.376Z,66.08
2022-10-16T08:04:11.733Z,66.23
2022-10-16T08:06:44.778Z,65.74
2022-10-16T08:09:12.484Z,66.07
2022-10-16T08:11:43.069Z,65.97
2022-10-16T08:14:10.829Z,65.81
2022-10-16T08:16:38.549Z,65.89
2022-10-16T08:19:06.264Z,65.95
2022-10-16T08:21:33.927Z,65.26
2022-10-16T08:24:01.651Z,65.61
2022-10-16T08:26:32.268Z,65.79
2022-10-16T08:28:59.939Z,65.20
2022-10-16T08:31:32.090Z,65.71
2022-10-16T08:34:00.216Z,65.53
2022-10-16T08:36:27.961Z,65.38
2022-10-16T08:38:59.473Z,64.58
2022-10-16T08:42:05.177Z,64.22
2022-10-16T08:45:11.881Z,63.93
2022-10-16T08:48:02.477Z,63.46
2022-10-16T08:50:34.713Z,63.45
2022-10-16T08:53:08.365Z,63.70
2022-10-16T08:55:53.397Z,63.20
2022-10-16T08:58:31.188Z,63.13
2022-10-16T09:01:07.539Z,62.25
2022-10-16T09:04:20.912Z,63.53
2022-10-16T09:07:17.642Z,62.85
2022-10-16T09:10:01.282Z,61.29
2022-10-16T09:13:02.609Z,61.77
2022-10-16T09:15:55.996Z,60.24
2022-10-16T09:18:47.128Z,59.49
2022-10-16T09:21:22.413Z,59.55
2022-10-16T09:23:52.415Z,59.23
2022-10-16T09:28:56.725Z,56.51
2022-10-16T09:31:24.621Z,56.51
2022-10-16T09:34:05.306Z,58.02
2022-10-16T09:36:42.393Z,57.19
2022-10-16T09:39:15.390Z,56.27
2022-10-16T09:41:48.730Z,55.51
2022-10-16T09:44:27.233Z,55.83
2022-10-16T09:47:16.168Z,56.46
2022-10-16T09:50:00.776Z,56.96
2022-10-16T09:52:31.079Z,56.61
2022-10-16T09:55:14.369Z,56.68
2022-10-16T09:57:52.359Z,55.81
2022-10-16T10:00:21.383Z,55.84
2022-10-16T10:02:49.786Z,54.46
2022-10-16T10:05:24.895Z,55.17
2022-10-16T10:08:07.089Z,54.70
2022-10-16T10:10:43.966Z,55.20
2022-10-16T10:13:23.944Z,54.37
2022-10-16T10:15:56.195Z,54.76
2022-10-16T10:18:25.506Z,54.78
2022-10-16T10:21:19.311Z,54.58
2022-10-16T10:23:57.983Z,53.88
2022-10-16T10:26:31.435Z,53.36
2022-10-16T10:29:09.184Z,53.49
2022-10-16T10:31:48.279Z,53.27
2022-10-16T10:34:34.394Z,53.31
2022-10-16T10:37:29.383Z,53.20
2022-10-16T10:40:35.902Z,52.99
2022-10-16T10:43:12.160Z,53.15
2022-10-16T10:45:48.141Z,53.39
2022-10-16T10:48:48.740Z,53.30
2022-10-16T10:51:43.504Z,52.87
2022-10-16T10:54:34.204Z,52.87
2022-10-16T10:57:08.279Z,52.59
2022-10-16T11:00:18.311Z,52.63
2022-10-16T11:03:00.183Z,52.39
2022-10-16T11:05:46.859Z,52.17
2022-10-16T11:08:23.531Z,52.19
2022-10-16T11:11:03.438Z,52.22
2022-10-16T11:13:47.879Z,51.75
2022-10-16T11:16:28.674Z,50.88
2022-10-16T11:19:05.182Z,51.30
2022-10-16T11:22:00.933Z,51.21
2022-10-16T11:24:56.422Z,50.97
2022-10-16T11:27:59.686Z,50.20
2022-10-16T11:30:34.777Z,50.56
2022-10-16T11:33:08.664Z,50.75
2022-10-16T11:36:09.282Z,50.73
2022-10-16T11:38:56.095Z,50.13
2022-10-16T11:41:44.859Z,50.37
2022-10-16T11:44:37.853Z,50.01
2022-10-16T11:50:01.013Z,50.26
2022-10-16T11:52:41.874Z,50.00
2022-10-16T11:55:22.357Z,49.71
2022-10-16T11:58:08.895Z,49.14
2022-10-16T12:00:48.843Z,49.44
2022-10-16T12:03:27.462Z,48.51
2022-10-16T12:06:36.428Z,48.86
2022-10-16T12:09:20.244Z,48.37
2022-10-16T12:11:49.168Z,48.77
2022-10-16T12:15:04.006Z,48.88
2022-10-16T12:17:40.015Z,48.75
2022-10-16T12:20:38.399Z,48.93
2022-10-16T12:23:24.382Z,48.64
2022-10-16T12:25:59.317Z,48.53
2022-10-16T12:28:33.977Z,48.49
2022-10-16T12:31:06.715Z,48.61
2022-10-16T12:33:46.561Z,48.52
2022-10-16T12:36:32.962Z,48.27
2022-10-16T12:39:04.700Z,48.38
2022-10-16T12:41:41.023Z,48.25
2022-10-16T12:44:29.974Z,48.31
2022-10-16T12:46:57.640Z,47.72
2022-10-16T12:49:38.358Z,47.51
2022-10-16T12:52:26.305Z,48.05
2022-10-16T12:55:01.743Z,48.25
2022-10-16T12:57:54.768Z,47.91
2022-10-16T13:00:33.415Z,47.51
2022-10-16T13:03:29.687Z,47.74
2022-10-16T13:06:09.189Z,47.28
2022-10-16T13:09:18.414Z,47.41
2022-10-16T13:12:07.549Z,47.30
2022-10-16T13:15:00.795Z,47.64
2022-10-16T13:18:05.220Z,46.69
2022-10-16T13:20:47.965Z,47.10
2022-10-16T13:23:28.208Z,47.28
2022-10-16T13:26:14.173Z,47.35
2022-10-16T13:28:42.563Z,47.27
2022-10-16T13:31:25.218Z,47.50
2022-10-16T13:33:57.157Z,47.47
2022-10-16T13:36:30.371Z,47.34
2022-10-16T13:39:07.294Z,47.22
2022-10-16T13:41:34.969Z,47.27
2022-10-16T13:44:04.256Z,47.08
2022-10-16T13:46:35.502Z,47.25
2022-10-16T13:49:13.701Z,47.21
2022-10-16T13:51:58.035Z,47.03
2022-10-16T13:54:30.484Z,46.66
2022-10-16T13:57:26.356Z,47.00
2022-10-16T13:59:56.610Z,46.92
2022-10-16T14:02:42.009Z,47.33
2022-10-16T14:05:12.560Z,47.15
2022-10-16T14:07:41.426Z,47.01
2022-10-16T14:10:24.277Z,47.04
2022-10-16T14:13:17.489Z,47.04
2022-10-16T14:15:55.251Z,47.03
2022-10-16T14:18:33.532Z,46.83
2022-10-16T14:21:14.065Z,46.85
2022-10-16T14:23:46.022Z,46.85
2022-10-16T14:26:17.811Z,47.16
2022-10-16T14:28:50.487Z,47.10
2022-10-16T14:31:38.495Z,46.69
2022-10-16T14:34:42.036Z,46.82
2022-10-16T14:37:27.808Z,46.74
2022-10-16T14:39:58.952Z,47.01
2022-10-16T14:42:27.112Z,46.83
2022-10-16T14:44:59.292Z,46.91
2022-10-16T14:47:30.062Z,47.12
2022-10-16T14:50:00.164Z,47.13
2022-10-16T14:52:27.919Z,47.19
2022-10-16T14:54:58.347Z,47.13
2022-10-16T14:57:34.675Z,47.13
2022-10-16T15:00:27.659Z,47.07
2022-10-16T15:02:55.402Z,47.19
2022-10-16T15:05:30.853Z,47.20
2022-10-16T15:07:58.577Z,47.30
2022-10-16T15:10:31.414Z,47.35
2022-10-16T15:13:03.193Z,47.38
2022-10-16T15:15:42.726Z,47.32
2022-10-16T15:18:16.186Z,47.36
2022-10-16T15:20:44.343Z,47.52
2022-10-16T15:23:19.663Z,47.54
2022-10-16T15:25:56.174Z,47.71
2022-10-16T15:28:27.102Z,47.57
2022-10-16T15:30:59.637Z,47.57
2022-10-16T15:33:39.775Z,47.85
2022-10-16T15:36:12.129Z,47.86
2022-10-16T15:38:39.757Z,48.00
2022-10-16T15:41:07.477Z,47.88
2022-10-16T15:43:35.222Z,48.12
2022-10-16T15:46:12.126Z,47.94
2022-10-16T15:48:40.002Z,48.18
2022-10-16T15:51:11.223Z,48.26
2022-10-16T15:53:39.033Z,48.30
2022-10-16T15:56:10.585Z,48.46
2022-10-16T15:58:38.497Z,48.43
2022-10-16T16:01:10.904Z,48.55
2022-10-16T16:03:42.388Z,48.57
2022-10-16T16:06:15.219Z,48.72
2022-10-16T16:08:42.991Z,48.77
2022-10-16T16:11:15.768Z,48.97
2022-10-16T16:13:47.433Z,48.94
2022-10-16T16:16:21.184Z,49.02
2022-10-16T16:18:53.584Z,49.01
2022-10-16T16:21:24.906Z,49.10
2022-10-16T16:23:52.832Z,49.42
2022-10-16T16:26:30.413Z,49.50
2022-10-16T16:29:00.873Z,49.91
2022-10-16T16:31:33.112Z,49.78
2022-10-16T16:34:00.847Z,50.00
2022-10-16T16:36:28.624Z,50.26
2022-10-16T16:38:59.783Z,50.66
2022-10-16T16:41:31.978Z,50.42
2022-10-16T16:44:09.736Z,50.73
2022-10-16T16:46:41.480Z,51.08
2022-10-16T16:49:14.247Z,50.63
2022-10-16T16:51:45.727Z,50.96
2022-10-16T16:54:18.164Z,50.78
2022-10-16T16:56:49.491Z,50.93
2022-10-16T16:59:23.765Z,50.75
2022-10-16T17:01:57.092Z,50.88
2022-10-16T17:04:27.139Z,51.08
2022-10-16T17:06:58.760Z,51.11
2022-10-16T17:09:26.532Z,51.25
2022-10-16T17:11:54.216Z,51.14
2022-10-16T17:14:22.004Z,51.45
2022-10-16T17:16:53.276Z,51.48
2022-10-16T17:19:21.212Z,51.29
2022-10-16T17:21:53.368Z,51.58
2022-10-16T17:24:24.733Z,51.70
2022-10-16T17:26:54.192Z,51.84
2022-10-16T17:29:24.317Z,51.76
2022-10-16T17:31:52.268Z,51.83
2022-10-16T17:34:20.006Z,52.10
2022-10-16T17:36:49.982Z,52.09
2022-10-16T17:39:21.568Z,52.09
2022-10-16T17:41:49.360Z,52.10
2022-10-16T17:44:23.433Z,52.16
2022-10-16T17:46:55.944Z,52.33
2022-10-16T17:51:56.019Z,52.69
2022-10-16T17:54:23.853Z,52.30
2022-10-16T17:56:58.414Z,52.27
2022-10-16T17:59:26.991Z,52.30
2022-10-16T18:01:54.786Z,52.66
2022-10-16T18:04:25.470Z,52.61
2022-10-16T18:06:53.382Z,52.67
2022-10-16T18:09:24.775Z,52.68
2022-10-16T18:12:00.245Z,52.72
2022-10-16T18:14:32.422Z,53.02
2022-10-16T18:17:00.215Z,53.19
2022-10-16T18:19:31.745Z,52.95
2022-10-16T18:21:59.612Z,52.98
2022-10-16T18:24:27.364Z,53.10
2022-10-16T18:26:59.980Z,53.04
2022-10-16T18:29:27.969Z,53.19
2022-10-16T18:31:59.356Z,53.18
2022-10-16T18:34:31.224Z,53.30
2022-10-16T18:37:01.640Z,53.47
2022-10-16T18:39:29.336Z,53.46
2022-10-16T18:42:01.495Z,53.36
2022-10-16T18:44:32.625Z,53.48
2022-10-16T18:47:05.738Z,53.54
2022-10-16T18:49:33.419Z,53.59
2022-10-16T18:52:09.888Z,53.57
2022-10-16T18:54:37.913Z,53.53
2022-10-16T18:57:09.239Z,53.73
2022-10-16T18:59:36.987Z,53.70
2022-10-16T19:02:10.722Z,53.76
2022-10-16T19:04:39.930Z,53.88
2022-10-16T19:07:07.697Z,53.93
2022-10-16T19:09:35.424Z,54.08
2022-10-16T19:12:10.209Z,53.92
2022-10-16T19:14:38.082Z,53.99
2022-10-16T19:17:05.832Z,54.13
2022-10-16T19:19:37.174Z,54.13
2022-10-16T19:22:33.807Z,54.31
2022-10-16T19:25:01.636Z,54.18
2022-10-16T19:27:29.395Z,54.24
2022-10-16T19:29:57.055Z,54.41
2022-10-16T19:32:26.647Z,54.32
2022-10-16T19:35:00.195Z,54.39
2022-10-16T19:37:27.995Z,54.39
2022-10-16T19:39:58.461Z,54.42
2022-10-16T19:42:29.444Z,54.54
2022-10-16T19:45:00.210Z,54.62
2022-10-16T19:47:29.077Z,54.51
2022-10-16T19:49:56.867Z,54.57
2022-10-16T19:52:28.374Z,54.62
2022-10-16T19:54:59.171Z,54.69
2022-10-16T19:57:27.032Z,54.61
2022-10-16T19:59:55.093Z,54.68
2022-10-16T20:02:22.801Z,54.73
2022-10-16T20:04:50.468Z,54.74
2022-10-16T20:07:18.194Z,54.83
2022-10-16T20:09:45.878Z,54.88
2022-10-16T20:12:13.606Z,54.92
2022-10-16T20:14:41.449Z,55.03
2022-10-16T20:17:09.197Z,55.05
2022-10-16T20:19:38.554Z,55.13
2022-10-16T20:22:06.789Z,55.19
2022-10-16T20:24:34.462Z,55.08
2022-10-16T20:27:03.097Z,55.28
2022-10-16T20:29:31.247Z,55.26
2022-10-16T20:31:58.870Z,55.36
2022-10-16T20:34:26.689Z,55.28
2022-10-16T20:36:54.489Z,55.30
2022-10-16T20:39:22.228Z,55.40
2022-10-16T20:41:49.964Z,55.36
2022-10-16T20:44:21.183Z,55.32
2022-10-16T20:46:48.937Z,55.50
2022-10-16T20:49:35.967Z,55.51
2022-10-16T20:52:05.441Z,55.56
2022-10-16T20:54:33.165Z,55.59
2022-10-16T20:57:03.354Z,55.58
2022-10-16T20:59:31.130Z,55.69
2022-10-16T21:01:59.225Z,55.61
2022-10-16T21:04:27.013Z,55.76
2022-10-16T21:06:55.441Z,55.64
2022-10-16T21:09:23.294Z,55.70
2022-10-16T21:11:51.202Z,55.80
2022-10-16T21:14:18.837Z,55.91
2022-10-16T21:16:46.649Z,55.80
2022-10-16T21:19:19.436Z,55.82
2022-10-16T21:21:49.245Z,55.87
2022-10-16T21:24:21.704Z,55.84
2022-10-16T21:26:49.568Z,55.86
2022-10-16T21:29:18.149Z,56.01
2022-10-16T21:31:45.865Z,56.02
2022-10-16T21:34:13.858Z,56.08
2022-10-16T21:36:46.916Z,56.01
2022-10-16T21:39:20.220Z,56.14
2022-10-16T21:41:54.534Z,56.23
2022-10-16T21:44:22.251Z,56.34
2022-10-16T21:46:55.055Z,56.20
2022-10-16T21:49:22.836Z,56.20
2022-10-16T21:51:55.820Z,56.25
2022-10-16T21:54:28.596Z,56.23
2022-10-16T21:56:59.245Z,56.28
2022-10-16T21:59:26.876Z,56.28
2022-10-16T22:01:54.722Z,56.35
2022-10-16T22:04:22.652Z,56.37
2022-10-16T22:06:55.028Z,56.38
2022-10-16T22:09:22.874Z,56.36
2022-10-16T22:11:55.613Z,56.38
2022-10-16T22:14:23.363Z,56.44
2022-10-16T22:16:51.219Z,56.44
2022-10-16T22:19:25.721Z,56.53
2022-10-16T22:22:01.285Z,56.50
2022-10-16T22:24:29.122Z,56.67
2022-10-16T22:26:56.932Z,56.61
2022-10-16T22:29:24.852Z,56.69
2022-10-16T22:31:57.409Z,56.64
2022-10-16T22:34:25.159Z,56.78
2022-10-16T22:36:52.940Z,56.72
2022-10-16T22:39:20.718Z,56.73
2022-10-16T22:41:48.566Z,56.74
2022-10-16T22:44:16.294Z,56.84
2022-10-16T22:46:44.021Z,56.84
2022-10-16T22:49:11.800Z,56.83
2022-10-16T22:51:39.599Z,56.84
2022-10-16T22:54:09.134Z,56.94
2022-10-16T22:56:36.969Z,56.96
2022-10-16T22:59:04.761Z,56.96
2022-10-16T23:01:42.004Z,57.06
2022-10-16T23:04:09.823Z,57.09
2022-10-16T23:06:42.284Z,57.06
2022-10-16T23:09:12.913Z,57.08
2022-10-16T23:11:42.173Z,57.16
2022-10-16T23:14:10.436Z,57.17
2022-10-16T23:16:38.200Z,57.20
2022-10-16T23:19:06.028Z,57.21
2022-10-16T23:21:33.818Z,57.22
2022-10-16T23:24:03.177Z,57.31
2022-10-16T23:26:30.899Z,57.38
2022-10-16T23:29:02.117Z,57.24
2022-10-16T23:31:34.805Z,57.31
2022-10-16T23:34:02.683Z,57.26
2022-10-16T23:36:30.575Z,57.39
2022-10-16T23:38:58.247Z,57.43
2022-10-16T23:41:25.978Z,57.39
2022-10-16T23:43:53.852Z,57.37
2022-10-16T23:46:26.493Z,57.46
2022-10-16T23:48:54.198Z,57.72
2022-10-16T23:51:26.908Z,57.68
2022-10-16T23:53:54.601Z,57.64
2022-10-16T23:56:22.271Z,57.65
2022-10-16T23:58:49.987Z,57.74
